Impacts TAF Board INFO
FOR SITUATIONAL AWARENESS. NOT TO BE USED FOR FLIGHT PLANNING PURPOSES.
IDs:

KEWR - Newark Intl, NJ, US

Issued at 2010 UTC 25 Apr 2018
Updated at 2022 UTC 25 Apr 2018
Potential Impact None Slight Moderate High
Time1951Z 25/21Z 25/22Z 25/23Z 26/00Z 26/01Z 26/02Z 26/03Z 26/04Z 26/05Z 26/06Z 26/07Z 26/08Z 26/09Z>>
Type OBS PRVL PRVL PRVL PRVL PRVL PRVL PRVL PRVL PRVL PRVL PRVL PRVL PRVL
VIS 0.75 1 1 0.5 0.5 0.5 0.5 0.5 0.5 0.5 0.5 0.5 3 3
CIG 2 3 3 2 2 2 3 3 3 3 3 3 15 15
Cover OVC OVC OVC OVC OVC OVC OVC OVC OVC OVC OVC OVC OVC OVC
FltCat LIFR LIFR LIFR LIFR LIFR LIFR LIFR LIFR LIFR LIFR LIFR LIFR MVFR MVFR
WX BR -DZ BR -DZ BR -DZ FG -DZ FG -DZ FG FG VCSH FG VCSH FG VCSH FG VCSH FG VCSH FG VCSH BR BR
WDir 90 VRB VRB VRB VRB VRB VRB VRB VRB VRB VRB VRB 300 300
WSpd 5 5 5 5 5 5 4 4 4 4 4 4 7 7
WGst -- -- -- -- -- -- -- -- -- -- -- -- -- --

Raw TAF
KEWR 252010Z 2520/2624 VRB05KT 1SM -DZ BR OVC003
  FM252300 VRB05KT 1/2SM -DZ FG OVC002
  FM260200 VRB04KT 1/2SM FG VCSH OVC003
  FM260800 30007KT 3SM BR SCT005 OVC015
  FM261000 29010KT P6SM FEW010 BKN025
  FM261300 28012KT P6SM SCT035 SCT100
  FM261600 27012G20KT P6SM SCT250


Raw METAR
KEWR 251951Z 09005KT 3/4SM R04R/P6000FT BR OVC002 13/13 A2970 RMK AO2 SFC VIS 1 SLP057 T01330133
KEWR 251851Z 11006KT 3/4SM R04R/5500VP6000FT BR OVC003 14/14 A2972 RMK AO2 SFC VIS 1 1/2 DZE12RAB12E28 SLP063 CIG 002V004 P0001 T01390139
KEWR 251751Z 12009KT 3/4SM R04R/5500VP6000FT -DZ BR OVC003 14/14 A2975 RMK AO2 SFC VIS 1 1/2 RAE12DZB51 SLP072 CIG 002V004 P0000 60016 T01440144 10144 20128 56034

METAR Board
Radar Display
Forecast Discussion

FOR SITUATIONAL AWARENESS. NOT TO BE USED FOR FLIGHT PLANNING PURPOSES.